Time;durP1;ratioP1;P1;durP2;ratioP2;P2;SDS_P1;SDS_P2;PMS_P1;PMS_P2;Temp;Humidity;BMP_temperature;BMP_pressure;BME280_temperature;BME280_humidity;BME280_pressure;Samples;Min_cycle;Max_cycle;Signal;HPM_P1;HPM_P2
2021/06/15 00:00:24;;;;;;;6.50;4.20;;;14.40;99.90;;;;;;5084934;28;20070;-77
2021/06/15 00:02:50;;;;;;;6.05;3.90;;;14.40;99.90;;;;;;5085939;28;20024;-77
2021/06/15 00:05:17;;;;;;;6.07;3.63;;;14.40;99.90;;;;;;5082873;28;20067;-78
2021/06/15 00:07:43;;;;;;;6.05;3.78;;;14.30;99.90;;;;;;5068964;28;20035;-77
2021/06/15 00:10:10;;;;;;;4.25;3.58;;;14.40;99.90;;;;;;5086648;28;20028;-78
2021/06/15 00:12:36;;;;;;;6.78;3.70;;;14.30;99.90;;;;;;5084993;28;20458;-78
2021/06/15 00:15:02;;;;;;;5.28;3.83;;;14.30;99.90;;;;;;5084917;28;20032;-78
2021/06/15 00:17:28;;;;;;;6.18;4.55;;;14.30;99.90;;;;;;5086778;28;20036;-78
2021/06/15 00:19:53;;;;;;;5.57;4.05;;;14.20;99.90;;;;;;5084716;28;20035;-78
2021/06/15 00:22:19;;;;;;;7.53;3.85;;;14.20;99.90;;;;;;5066355;28;20032;-78
2021/06/15 00:24:44;;;;;;;6.65;3.60;;;14.20;99.90;;;;;;5067588;28;20044;-77
2021/06/15 00:27:10;;;;;;;5.90;3.60;;;14.10;99.90;;;;;;5081885;28;20036;-77
2021/06/15 00:29:36;;;;;;;3.95;3.30;;;14.20;99.90;;;;;;5086702;28;20402;-78
2021/06/15 00:32:02;;;;;;;7.57;4.20;;;14.20;99.90;;;;;;5092109;28;20036;-78
2021/06/15 00:34:28;;;;;;;5.57;4.22;;;14.10;99.90;;;;;;5093400;28;20070;-78
2021/06/15 00:36:53;;;;;;;6.47;4.15;;;14.10;99.90;;;;;;5080461;28;20127;-78
2021/06/15 00:39:19;;;;;;;5.55;3.25;;;14.00;99.90;;;;;;5084886;28;20028;-77
2021/06/15 00:41:45;;;;;;;4.78;3.60;;;14.00;99.90;;;;;;5066754;28;20509;-77
2021/06/15 00:44:12;;;;;;;8.25;4.03;;;14.00;99.90;;;;;;5082825;28;20043;-77
2021/06/15 00:46:39;;;;;;;3.78;3.42;;;13.80;99.90;;;;;;5085075;28;20028;-78
2021/06/15 00:49:06;;;;;;;8.90;3.85;;;13.70;99.90;;;;;;5083344;28;20102;-78
2021/06/15 00:51:32;;;;;;;4.30;3.80;;;13.60;99.90;;;;;;5082540;28;20032;-78
2021/06/15 00:53:58;;;;;;;5.55;3.97;;;13.60;99.90;;;;;;5081965;28;20032;-77
2021/06/15 00:56:23;;;;;;;7.30;4.07;;;13.60;99.90;;;;;;5082064;28;20028;-77
2021/06/15 00:58:51;;;;;;;6.10;4.32;;;13.70;99.90;;;;;;5081563;28;20042;-77
2021/06/15 01:01:18;;;;;;;6.03;3.35;;;13.60;99.90;;;;;;5080174;28;20414;-77
2021/06/15 01:03:46;;;;;;;4.93;3.28;;;13.60;99.90;;;;;;5083768;28;20032;-76
2021/06/15 01:06:22;;;;;;;5.05;3.83;;;13.60;99.90;;;;;;5080907;28;20103;-77
2021/06/15 01:09:00;;;;;;;3.78;3.08;;;13.60;99.90;;;;;;5084688;28;20042;-77
2021/06/15 01:11:35;;;;;;;4.13;3.72;;;13.60;99.90;;;;;;5083689;28;20036;-78
2021/06/15 01:14:31;;;;;;;7.90;4.30;;;13.60;99.90;;;;;;5084930;28;20114;-78
2021/06/15 01:16:59;;;;;;;;;;;13.60;99.90;;;;;;5079544;28;20055;-78
2021/06/15 01:19:35;;;;;;;3.72;3.25;;;13.50;99.90;;;;;;5091670;28;19920;-78
2021/06/15 01:22:20;;;;;;;4.32;3.63;;;13.50;99.90;;;;;;5083073;28;20024;-78
2021/06/15 01:25:06;;;;;;;6.35;3.63;;;13.50;99.90;;;;;;5089460;28;20505;-77
2021/06/15 01:28:01;;;;;;;6.13;4.05;;;13.40;99.90;;;;;;5081615;28;20025;-78
2021/06/15 01:30:39;;;;;;;5.68;3.50;;;13.40;99.90;;;;;;5084029;28;20077;-77
2021/06/15 01:33:07;;;;;;;4.63;3.67;;;13.40;99.90;;;;;;5081760;28;20029;-77
2021/06/15 01:35:35;;;;;;;5.05;3.63;;;13.30;99.90;;;;;;5074853;28;20039;-77
2021/06/15 01:38:05;;;;;;;5.82;3.97;;;13.30;99.90;;;;;;5083858;28;20032;-78
2021/06/15 01:40:53;;;;;;;6.20;4.10;;;13.30;99.90;;;;;;5068549;28;20033;-78
2021/06/15 01:43:39;;;;;;;6.82;3.88;;;13.30;99.90;;;;;;5091254;28;20028;-78
2021/06/15 01:46:07;;;;;;;7.45;4.00;;;13.30;99.90;;;;;;5094119;28;20020;-78
2021/06/15 01:49:02;;;;;;;4.60;4.13;;;13.30;99.90;;;;;;5085411;28;20036;-78
2021/06/15 01:51:30;;;;;;;6.65;3.80;;;13.30;99.90;;;;;;5087088;28;20024;-78
2021/06/15 01:54:10;;;;;;;5.55;4.18;;;13.30;99.90;;;;;;5084923;28;20059;-78
2021/06/15 01:57:03;;;;;;;6.40;3.72;;;13.20;99.90;;;;;;5082998;28;20082;-77
2021/06/15 02:00:06;;;;;;;5.82;4.25;;;13.10;99.90;;;;;;5081084;28;20081;-78
2021/06/15 02:02:33;;;;;;;6.47;4.18;;;13.10;99.90;;;;;;5057363;28;20075;-78
2021/06/15 02:05:03;;;;;;;7.72;4.18;;;13.00;99.90;;;;;;5082675;28;20044;-78
2021/06/15 02:07:32;;;;;;;6.30;3.95;;;13.00;99.90;;;;;;5083376;28;20165;-78
2021/06/15 02:10:07;;;;;;;4.22;3.72;;;12.90;99.90;;;;;;5079589;28;20121;-78
2021/06/15 02:13:09;;;;;;;5.95;3.85;;;12.90;99.90;;;;;;5036519;28;20131;-78
2021/06/15 02:16:02;;;;;;;4.22;3.67;;;12.90;99.90;;;;;;5065885;28;20055;-78
2021/06/15 02:18:56;;;;;;;6.22;3.95;;;12.80;99.90;;;;;;5065514;28;20036;-77
2021/06/15 02:21:33;;;;;;;7.50;3.75;;;12.90;99.90;;;;;;5080519;28;20044;-78
2021/06/15 02:24:02;;;;;;;5.70;3.70;;;12.80;99.90;;;;;;5083436;28;20032;-77
2021/06/15 02:26:31;;;;;;;4.57;3.90;;;12.80;99.90;;;;;;5081489;28;20043;-78
2021/06/15 02:28:59;;;;;;;5.70;3.38;;;12.80;99.90;;;;;;5081057;28;20025;-78
2021/06/15 02:31:31;;;;;;;4.28;3.75;;;12.80;99.90;;;;;;5080898;28;20103;-77
2021/06/15 02:34:15;;;;;;;8.25;3.90;;;12.80;99.90;;;;;;5085845;28;20086;-78
2021/06/15 02:36:51;;;;;;;6.70;3.63;;;12.80;99.90;;;;;;5062984;28;20036;-78
2021/06/15 02:39:21;;;;;;;4.00;3.28;;;12.80;99.90;;;;;;5094522;28;20403;-78
2021/06/15 02:41:47;;;;;;;5.85;3.13;;;12.80;99.90;;;;;;5084236;28;20039;-77
2021/06/15 02:44:18;;;;;;;5.85;3.58;;;12.80;99.90;;;;;;5081627;28;20024;-78
2021/06/15 02:46:54;;;;;;;6.18;4.05;;;12.70;99.90;;;;;;5064645;28;20059;-78
2021/06/15 02:49:24;;;;;;;5.53;3.88;;;12.70;99.90;;;;;;5078015;28;20036;-78
2021/06/15 02:52:15;;;;;;;5.25;3.95;;;12.70;99.90;;;;;;5081015;28;20470;-78
2021/06/15 02:54:50;;;;;;;5.85;3.70;;;12.70;99.90;;;;;;5072741;28;20711;-78
2021/06/15 02:57:18;;;;;;;5.03;3.90;;;12.60;99.90;;;;;;5078930;28;20526;-78
2021/06/15 02:59:44;;;;;;;5.95;4.13;;;12.60;99.90;;;;;;5083796;28;20058;-78
2021/06/15 03:02:11;;;;;;;6.07;4.25;;;12.60;99.90;;;;;;5063791;28;20024;-77
2021/06/15 03:04:46;;;;;;;5.80;3.72;;;12.60;99.90;;;;;;5081488;28;20032;-77
2021/06/15 03:07:13;;;;;;;6.95;4.85;;;12.60;99.90;;;;;;5046273;28;20040;-78
2021/06/15 03:09:40;;;;;;;4.15;3.33;;;12.50;99.90;;;;;;5073562;28;20039;-78
2021/06/15 03:12:11;;;;;;;4.28;3.58;;;12.50;99.90;;;;;;5063778;28;20063;-78
2021/06/15 03:14:48;;;;;;;3.42;3.08;;;12.50;99.90;;;;;;5080748;28;20035;-78
2021/06/15 03:17:15;;;;;;;5.05;3.25;;;12.50;99.90;;;;;;5079700;28;20024;-78
2021/06/15 03:19:58;;;;;;;3.90;3.35;;;12.50;99.90;;;;;;5065650;28;20028;-77
2021/06/15 03:22:32;;;;;;;6.43;3.28;;;12.50;99.90;;;;;;5087982;28;20017;-77
2021/06/15 03:25:04;;;;;;;4.97;3.70;;;12.50;99.90;;;;;;5085278;28;20379;-77
2021/06/15 03:27:48;;;;;;;9.83;3.87;;;12.50;99.90;;;;;;5078465;28;20038;-78
2021/06/15 03:30:15;;;;;;;5.38;4.00;;;12.50;99.90;;;;;;5079529;28;20620;-77
2021/06/15 03:32:52;;;;;;;5.82;4.40;;;12.40;99.90;;;;;;5079815;28;20027;-77
2021/06/15 03:35:21;;;;;;;6.18;4.05;;;12.40;99.90;;;;;;5064816;28;20537;-77
2021/06/15 03:38:10;;;;;;;5.53;4.20;;;12.30;99.90;;;;;;5071726;28;20127;-78
2021/06/15 03:40:40;;;;;;;6.03;3.95;;;12.30;99.90;;;;;;5078603;28;20090;-77
2021/06/15 03:43:08;;;;;;;5.90;4.35;;;12.30;99.90;;;;;;5090257;28;20157;-77
2021/06/15 03:45:38;;;;;;;5.70;3.60;;;12.30;99.90;;;;;;5088707;28;20753;-77
2021/06/15 03:48:05;;;;;;;3.92;3.40;;;12.30;99.90;;;;;;5069535;28;20047;-77
2021/06/15 03:50:34;;;;;;;6.30;4.43;;;12.30;99.90;;;;;;5094301;28;20047;-76
2021/06/15 03:53:02;;;;;;;4.90;3.60;;;12.30;99.90;;;;;;5089481;28;20039;-77
2021/06/15 03:55:30;;;;;;;4.93;3.60;;;12.30;99.90;;;;;;5088598;28;20081;-77
2021/06/15 03:58:00;;;;;;;6.45;3.80;;;12.30;99.90;;;;;;5090682;28;20470;-78
2021/06/15 04:00:28;;;;;;;5.88;4.53;;;12.30;99.90;;;;;;5081501;28;20024;-77
2021/06/15 04:02:56;;;;;;;8.50;4.13;;;12.20;99.90;;;;;;5094598;28;20042;-78
2021/06/15 04:05:27;;;;;;;6.07;4.35;;;12.10;99.90;;;;;;5093146;28;20047;-77
2021/06/15 04:07:56;;;;;;;5.60;3.83;;;12.20;99.90;;;;;;5092797;28;20035;-76
2021/06/15 04:10:23;;;;;;;5.07;3.83;;;12.20;99.90;;;;;;5093963;28;20032;-77
2021/06/15 04:12:51;;;;;;;5.35;3.80;;;12.20;99.90;;;;;;5090128;28;20082;-76
2021/06/15 04:15:18;;;;;;;7.38;3.78;;;12.30;99.90;;;;;;5083749;28;20028;-77
2021/06/15 04:17:47;;;;;;;4.82;3.92;;;12.30;99.90;;;;;;5092708;28;20024;-78
2021/06/15 04:20:14;;;;;;;4.88;3.78;;;12.40;99.90;;;;;;5076343;28;20055;-77
2021/06/15 04:22:45;;;;;;;5.78;3.42;;;12.40;99.90;;;;;;5093439;28;20028;-77
2021/06/15 04:25:17;;;;;;;5.32;3.50;;;12.50;99.90;;;;;;5084654;28;20036;-77
2021/06/15 04:27:46;;;;;;;3.85;3.40;;;12.60;99.90;;;;;;5088597;28;20713;-77
2021/06/15 04:30:13;;;;;;;3.78;3.10;;;12.70;99.90;;;;;;5092479;28;20024;-77
2021/06/15 04:33:16;;;;;;;4.47;3.78;;;12.70;99.90;;;;;;5089068;28;20028;-78
2021/06/15 04:35:46;;;;;;;5.38;4.07;;;12.80;99.90;;;;;;5052596;28;20029;-76
2021/06/15 04:38:15;;;;;;;5.93;4.88;;;12.90;99.90;;;;;;5085294;27;20044;-78
2021/06/15 04:40:49;;;;;;;6.93;5.43;;;13.00;99.90;;;;;;5084947;28;20036;-77
2021/06/15 04:43:32;;;;;;;5.78;4.47;;;12.90;99.90;;;;;;5091328;28;20020;-77
2021/06/15 04:46:07;;;;;;;6.32;5.15;;;12.90;99.90;;;;;;5084818;28;20039;-78
2021/06/15 04:48:35;;;;;;;7.60;5.53;;;13.00;99.90;;;;;;5083511;28;20028;-77
2021/06/15 04:51:05;;;;;;;9.15;5.82;;;13.00;99.90;;;;;;5092527;28;20024;-76
2021/06/15 04:53:36;;;;;;;7.95;5.55;;;13.00;99.90;;;;;;5084659;28;20131;-77
2021/06/15 04:56:03;;;;;;;10.80;6.10;;;13.10;99.90;;;;;;5065094;28;20028;-77
2021/06/15 04:58:31;;;;;;;10.38;5.47;;;13.20;99.90;;;;;;5083670;28;20028;-77
2021/06/15 05:01:00;;;;;;;8.20;5.72;;;13.30;99.90;;;;;;5090832;28;20028;-77
2021/06/15 05:03:29;;;;;;;10.15;6.25;;;13.40;99.90;;;;;;5090820;28;20069;-78
2021/06/15 05:05:57;;;;;;;6.55;5.35;;;13.50;99.90;;;;;;5093041;28;20024;-78
2021/06/15 05:08:25;;;;;;;6.20;4.85;;;13.60;99.90;;;;;;5094243;28;20055;-78
2021/06/15 05:10:53;;;;;;;5.97;4.70;;;13.80;99.90;;;;;;5093327;28;20024;-77
2021/06/15 05:13:21;;;;;;;6.55;5.15;;;13.90;99.90;;;;;;5091017;28;20042;-78
2021/06/15 05:15:49;;;;;;;5.43;4.40;;;14.20;99.90;;;;;;5088041;28;20540;-78
2021/06/15 05:18:15;;;;;;;6.63;3.88;;;14.30;99.90;;;;;;5090583;28;20039;-78
2021/06/15 05:20:42;;;;;;;6.68;4.45;;;14.50;99.90;;;;;;5072522;28;20024;-78
2021/06/15 05:23:45;;;;;;;5.68;3.75;;;14.70;99.90;;;;;;5090550;28;20048;-77
2021/06/15 05:26:12;;;;;;;6.97;4.97;;;14.80;99.90;;;;;;5015917;28;20037;-78
2021/06/15 05:28:37;;;;;;;5.20;4.63;;;15.00;99.90;;;;;;5076035;28;20050;-78
2021/06/15 05:31:03;;;;;;;6.32;4.78;;;15.30;99.90;;;;;;5065706;28;20032;-78
2021/06/15 05:33:29;;;;;;;6.78;4.43;;;15.80;99.90;;;;;;5085586;28;20028;-78
2021/06/15 05:35:55;;;;;;;5.78;4.57;;;16.40;99.90;;;;;;5091631;28;20024;-77
2021/06/15 05:38:21;;;;;;;7.00;4.57;;;17.10;99.90;;;;;;5090904;28;20020;-77
2021/06/15 05:40:48;;;;;;;6.63;4.72;;;17.90;99.90;;;;;;5074595;28;20031;-78
2021/06/15 05:43:14;;;;;;;4.75;4.25;;;18.70;99.90;;;;;;5088303;28;20033;-77
2021/06/15 05:45:40;;;;;;;6.57;4.18;;;19.20;99.90;;;;;;5089324;28;20024;-78
2021/06/15 05:48:06;;;;;;;5.88;4.35;;;19.80;99.90;;;;;;5087283;28;20626;-79
2021/06/15 05:50:31;;;;;;;4.28;3.88;;;20.20;99.90;;;;;;5079879;28;20032;-78
2021/06/15 05:52:58;;;;;;;6.68;4.25;;;20.40;99.90;;;;;;5079391;28;20028;-78
2021/06/15 05:55:23;;;;;;;7.55;4.38;;;20.80;99.90;;;;;;5081706;28;20447;-78
2021/06/15 05:57:58;;;;;;;6.70;4.75;;;21.00;99.90;;;;;;5090083;28;20020;-77
2021/06/15 06:00:24;;;;;;;7.88;4.65;;;21.10;99.90;;;;;;5090957;28;20107;-78
2021/06/15 06:02:50;;;;;;;8.57;3.92;;;21.40;99.90;;;;;;5067400;28;20490;-78
2021/06/15 06:10:27;;;;;;;5.57;3.90;;;22.70;99.90;;;;;;5086681;28;20028;-78
2021/06/15 06:12:53;;;;;;;5.07;4.18;;;23.10;99.90;;;;;;5089711;28;20308;-78
2021/06/15 06:15:19;;;;;;;6.13;4.05;;;23.40;99.90;;;;;;5087950;28;20032;-79
2021/06/15 06:17:45;;;;;;;5.10;3.83;;;23.90;99.90;;;;;;5073067;28;20036;-79
2021/06/15 06:20:13;;;;;;;6.07;4.30;;;24.50;99.90;;;;;;5087421;28;20024;-77
2021/06/15 06:22:39;;;;;;;9.75;3.92;;;25.00;98.20;;;;;;5088015;28;20547;-79
2021/06/15 06:25:08;;;;;;;5.85;4.60;;;25.30;97.00;;;;;;5089046;28;20107;-77
2021/06/15 06:27:34;;;;;;;5.10;3.78;;;25.40;96.50;;;;;;5074558;28;20046;-77
2021/06/15 06:29:59;;;;;;;4.88;4.32;;;26.00;94.00;;;;;;5086703;28;20024;-77
2021/06/15 06:32:25;;;;;;;7.57;3.97;;;26.40;91.00;;;;;;5083671;28;20577;-78
2021/06/15 06:34:51;;;;;;;5.05;3.75;;;26.10;84.30;;;;;;5086265;28;20032;-80
2021/06/15 06:37:17;;;;;;;6.80;3.45;;;26.00;82.60;;;;;;5090240;28;20020;-78
2021/06/15 06:39:42;;;;;;;5.05;3.88;;;26.20;83.50;;;;;;5088624;28;20055;-80
2021/06/15 06:42:09;;;;;;;3.97;3.53;;;26.20;82.60;;;;;;5088618;28;20032;-79
2021/06/15 06:44:35;;;;;;;6.32;4.28;;;26.30;80.90;;;;;;5088035;28;20024;-79
2021/06/15 06:47:01;;;;;;;5.72;4.20;;;26.50;78.30;;;;;;5089247;28;20089;-79
2021/06/15 06:49:27;;;;;;;4.82;3.53;;;26.70;78.50;;;;;;5088112;28;20024;-79
2021/06/15 06:51:53;;;;;;;5.53;3.55;;;26.80;73.30;;;;;;5086822;28;21264;-79
2021/06/15 06:54:18;;;;;;;6.93;4.05;;;27.10;75.00;;;;;;5084129;28;20024;-79
2021/06/15 06:56:44;;;;;;;5.05;3.58;;;27.50;73.90;;;;;;5081050;28;20416;-78
2021/06/15 06:59:10;;;;;;;3.80;3.40;;;27.50;71.50;;;;;;5085259;28;20030;-78
2021/06/15 07:01:35;;;;;;;4.65;4.18;;;27.70;67.20;;;;;;5091730;28;20461;-78
2021/06/15 07:04:01;;;;;;;7.60;4.10;;;27.70;67.60;;;;;;5089920;28;20032;-78
2021/06/15 07:06:27;;;;;;;5.95;4.60;;;27.30;69.40;;;;;;5078222;28;20029;-77
2021/06/15 07:08:53;;;;;;;5.72;3.92;;;27.50;70.30;;;;;;5085164;28;20052;-78
2021/06/15 07:11:19;;;;;;;5.70;3.00;;;27.50;69.90;;;;;;5082495;28;20029;-77
2021/06/15 07:13:45;;;;;;;4.75;3.78;;;27.70;71.20;;;;;;5081056;28;20123;-78
2021/06/15 07:16:11;;;;;;;5.65;3.40;;;27.90;67.50;;;;;;5081568;28;20148;-78
2021/06/15 07:18:38;;;;;;;6.07;3.80;;;28.00;64.80;;;;;;5081666;28;20021;-77
2021/06/15 07:21:06;;;;;;;5.70;3.60;;;28.20;67.50;;;;;;5082990;28;20066;-78
2021/06/15 07:23:32;;;;;;;3.83;2.90;;;28.40;66.10;;;;;;5067058;28;20089;-78
2021/06/15 07:25:58;;;;;;;5.13;2.80;;;28.80;64.90;;;;;;5080822;28;20553;-78
2021/06/15 07:28:24;;;;;;;2.50;2.30;;;29.00;64.20;;;;;;5079959;28;20024;-77
2021/06/15 07:30:50;;;;;;;3.40;2.85;;;29.40;62.40;;;;;;5063488;28;20016;-77
2021/06/15 07:33:16;;;;;;;2.42;2.20;;;29.80;60.30;;;;;;5081146;28;20024;-78
2021/06/15 07:35:42;;;;;;;5.65;3.13;;;30.20;60.10;;;;;;5085544;28;20131;-77
2021/06/15 07:38:07;;;;;;;4.50;2.90;;;30.20;54.00;;;;;;5089306;28;20500;-77
2021/06/15 07:40:33;;;;;;;4.65;2.45;;;30.20;53.30;;;;;;5069751;28;20040;-77
2021/06/15 07:42:59;;;;;;;4.90;2.88;;;30.10;56.80;;;;;;5087638;28;20109;-77
2021/06/15 07:45:28;;;;;;;4.30;3.10;;;30.40;57.40;;;;;;5082945;28;20113;-76
2021/06/15 07:47:53;;;;;;;5.45;3.25;;;30.70;57.20;;;;;;5095709;28;20027;-76
2021/06/15 07:50:19;;;;;;;3.58;3.08;;;31.00;54.50;;;;;;5080459;28;20054;-77
2021/06/15 07:52:46;;;;;;;4.72;3.42;;;30.60;56.10;;;;;;5089479;28;20028;-77
2021/06/15 07:55:14;;;;;;;7.40;2.88;;;30.50;57.50;;;;;;5088844;28;20088;-77
2021/06/15 07:57:41;;;;;;;3.33;3.00;;;30.40;57.80;;;;;;5085564;28;20042;-79
2021/06/15 08:00:09;;;;;;;6.45;3.72;;;30.30;55.50;;;;;;5089377;28;20032;-78
2021/06/15 08:02:39;;;;;;;3.67;2.85;;;30.00;55.40;;;;;;5087761;28;20028;-77
2021/06/15 08:05:05;;;;;;;4.10;3.28;;;29.70;57.00;;;;;;5084401;28;20063;-78
2021/06/15 08:07:31;;;;;;;4.45;2.85;;;29.40;56.10;;;;;;5079327;28;20035;-77
2021/06/15 08:09:57;;;;;;;5.18;2.95;;;29.10;56.80;;;;;;5084567;28;20024;-77
2021/06/15 08:12:23;;;;;;;2.85;2.63;;;28.70;59.30;;;;;;5078048;28;20028;-78
2021/06/15 08:14:48;;;;;;;2.90;2.65;;;28.40;61.80;;;;;;5089882;28;20058;-77
2021/06/15 08:17:14;;;;;;;4.55;3.17;;;28.60;63.10;;;;;;5087805;28;20039;-77
2021/06/15 08:19:40;;;;;;;3.70;2.92;;;28.80;60.90;;;;;;5089344;28;20031;-79
2021/06/15 08:22:06;;;;;;;3.70;3.17;;;29.00;59.10;;;;;;5062931;28;20403;-77
2021/06/15 08:24:32;;;;;;;3.05;2.60;;;29.20;58.70;;;;;;5086517;28;20085;-78
2021/06/15 08:26:58;;;;;;;5.30;2.88;;;29.20;58.60;;;;;;5082840;28;20029;-78
2021/06/15 08:29:24;;;;;;;5.35;3.05;;;29.40;56.40;;;;;;5083063;28;20502;-78
2021/06/15 08:31:50;;;;;;;5.07;3.05;;;29.20;57.20;;;;;;5081090;28;20870;-77
2021/06/15 08:34:15;;;;;;;4.45;3.25;;;28.80;56.40;;;;;;5082579;28;20028;-78
2021/06/15 08:36:41;;;;;;;3.75;2.92;;;28.40;57.20;;;;;;5082595;28;20035;-79
2021/06/15 08:39:08;;;;;;;3.45;2.75;;;28.00;61.40;;;;;;5082306;28;20112;-78
2021/06/15 08:41:35;;;;;;;2.95;2.63;;;27.70;59.00;;;;;;5086848;28;20026;-76
2021/06/15 08:44:02;;;;;;;4.95;4.15;;;27.80;62.10;;;;;;5085277;28;20107;-78
2021/06/15 08:46:29;;;;;;;5.00;3.08;;;28.10;62.70;;;;;;5084230;28;20482;-78
2021/06/15 08:48:56;;;;;;;2.40;2.13;;;28.50;58.60;;;;;;5087604;28;20031;-77
2021/06/15 08:51:22;;;;;;;4.47;2.70;;;28.70;59.20;;;;;;5083682;28;20695;-78
2021/06/15 08:53:53;;;;;;;2.97;2.40;;;29.00;57.20;;;;;;5082007;28;20428;-78
2021/06/15 08:56:31;;;;;;;2.35;2.15;;;29.00;56.30;;;;;;5084028;28;20031;-76
2021/06/15 08:59:21;;;;;;;2.80;2.45;;;29.10;57.10;;;;;;5080740;28;20018;-77
2021/06/15 09:01:52;;;;;;;2.95;2.42;;;29.30;56.90;;;;;;5080004;28;20033;-78
2021/06/15 09:04:18;;;;;;;3.83;2.95;;;29.50;57.10;;;;;;5080877;28;20121;-78
2021/06/15 09:06:45;;;;;;;5.32;2.75;;;29.40;53.80;;;;;;5084162;28;20474;-78
2021/06/15 09:09:11;;;;;;;2.70;2.28;;;29.00;53.80;;;;;;5086175;28;20234;-77
2021/06/15 09:11:49;;;;;;;3.80;2.60;;;28.80;56.10;;;;;;5081553;28;20043;-78
2021/06/15 09:14:16;;;;;;;5.65;2.25;;;28.50;56.80;;;;;;5085929;28;20028;-76
2021/06/15 09:16:47;;;;;;;2.60;2.22;;;28.10;55.10;;;;;;5083966;28;20028;-78
2021/06/15 09:19:24;;;;;;;2.75;2.03;;;27.70;56.10;;;;;;5085329;28;20020;-78
2021/06/15 09:21:53;;;;;;;3.42;2.03;;;27.40;57.90;;;;;;5086256;28;20028;-78
2021/06/15 09:24:23;;;;;;;2.42;2.00;;;27.40;58.70;;;;;;5079886;28;20033;-78
2021/06/15 09:27:08;;;;;;;2.15;1.90;;;27.30;57.40;;;;;;5087317;27;20032;-77
2021/06/15 09:29:40;;;;;;;2.30;2.10;;;27.40;58.60;;;;;;5068487;28;20032;-78
2021/06/15 09:32:08;;;;;;;4.43;2.22;;;27.50;57.10;;;;;;5083477;28;20391;-77
2021/06/15 09:34:34;;;;;;;2.45;1.83;;;27.50;58.20;;;;;;5082970;28;20079;-77
2021/06/15 09:37:04;;;;;;;3.00;1.83;;;27.50;58.90;;;;;;5078326;28;20530;-77
2021/06/15 09:39:34;;;;;;;3.33;2.03;;;27.40;55.50;;;;;;5079656;28;20035;-77
2021/06/15 09:42:00;;;;;;;2.65;2.45;;;27.20;56.60;;;;;;5087272;28;20028;-77
2021/06/15 09:44:29;;;;;;;3.05;2.08;;;27.00;57.80;;;;;;5088476;28;20024;-78
2021/06/15 09:47:04;;;;;;;2.22;2.03;;;26.70;59.80;;;;;;5083901;28;20075;-77
2021/06/15 09:49:30;;;;;;;3.72;2.25;;;26.70;59.00;;;;;;5093005;28;20393;-77
2021/06/15 09:52:17;;;;;;;2.58;2.17;;;26.70;57.30;;;;;;5101070;28;20114;-77
2021/06/15 09:54:59;;;;;;;3.08;1.95;;;26.80;58.30;;;;;;5088624;28;20032;-78
2021/06/15 09:57:27;;;;;;;2.53;2.08;;;26.90;58.30;;;;;;5084600;28;20021;-78
2021/06/15 10:00:00;;;;;;;3.58;2.22;;;26.90;57.80;;;;;;5085172;28;20032;-77
2021/06/15 10:02:26;;;;;;;2.38;2.00;;;27.00;57.80;;;;;;5085149;28;20119;-78
2021/06/15 10:04:52;;;;;;;4.32;2.00;;;27.00;56.00;;;;;;5086195;28;20047;-78
2021/06/15 10:07:28;;;;;;;2.38;1.65;;;27.00;58.40;;;;;;5088103;28;20051;-78
2021/06/15 10:09:56;;;;;;;2.20;2.00;;;27.00;55.10;;;;;;5086551;28;20039;-77
2021/06/15 10:12:23;;;;;;;2.50;1.90;;;26.90;57.00;;;;;;5086006;28;20550;-78
2021/06/15 10:14:49;;;;;;;2.50;2.05;;;27.00;58.60;;;;;;5089133;28;20020;-78
2021/06/15 10:17:16;;;;;;;2.95;2.00;;;27.00;58.80;;;;;;5088379;28;20043;-77
2021/06/15 10:19:42;;;;;;;3.97;1.90;;;27.10;58.60;;;;;;5090409;28;20028;-78
2021/06/15 10:22:08;;;;;;;3.28;2.10;;;27.10;54.30;;;;;;5082580;28;20036;-78
2021/06/15 10:24:36;;;;;;;4.10;2.17;;;27.00;55.30;;;;;;5086016;28;20114;-78
2021/06/15 10:27:07;;;;;;;2.10;1.85;;;26.90;57.20;;;;;;5086819;28;20032;-78
2021/06/15 10:29:34;;;;;;;3.67;1.83;;;27.00;58.10;;;;;;5083320;28;20032;-78
2021/06/15 10:32:16;;;;;;;2.15;1.95;;;26.90;57.20;;;;;;5084502;28;20462;-77
2021/06/15 10:34:57;;;;;;;3.35;2.55;;;26.70;54.90;;;;;;5088231;28;20042;-77
2021/06/15 10:37:35;;;;;;;2.78;2.17;;;26.60;56.70;;;;;;5089582;28;20538;-78
2021/06/15 10:40:21;;;;;;;2.25;2.00;;;26.60;58.10;;;;;;5081376;28;20394;-78
2021/06/15 10:43:12;;;;;;;3.13;2.40;;;26.60;59.20;;;;;;5080744;28;20039;-77
2021/06/15 10:45:39;;;;;;;4.95;2.03;;;26.70;57.00;;;;;;5077257;28;20453;-76
2021/06/15 10:48:05;;;;;;;4.03;1.98;;;26.60;55.50;;;;;;5084268;28;20028;-77
2021/06/15 10:50:46;;;;;;;4.13;2.05;;;26.50;56.30;;;;;;5085857;28;20109;-76
2021/06/15 10:53:14;;;;;;;3.95;2.13;;;26.40;57.90;;;;;;5088883;28;20047;-78
2021/06/15 10:55:44;;;;;;;2.90;1.88;;;26.20;58.30;;;;;;5094006;28;20031;-77
2021/06/15 10:58:11;;;;;;;2.67;1.92;;;26.20;58.60;;;;;;5088754;28;20376;-78
2021/06/15 11:00:45;;;;;;;3.00;2.35;;;26.20;60.60;;;;;;5083545;28;20020;-76
2021/06/15 11:03:17;;;;;;;3.03;2.25;;;26.30;59.30;;;;;;5092830;28;20033;-77
2021/06/15 11:05:45;;;;;;;2.00;1.80;;;26.40;61.10;;;;;;5088438;28;20020;-77
2021/06/15 11:08:15;;;;;;;3.58;2.00;;;26.50;57.00;;;;;;5088833;28;20055;-77
2021/06/15 11:10:59;;;;;;;2.88;1.98;;;26.60;62.50;;;;;;5084542;28;20078;-76
2021/06/15 11:13:48;;;;;;;3.08;2.20;;;26.80;58.20;;;;;;5089710;28;20154;-78
2021/06/15 11:16:26;;;;;;;4.90;2.20;;;27.00;57.50;;;;;;5079216;28;20023;-77
2021/06/15 11:19:10;;;;;;;2.78;2.20;;;27.20;57.40;;;;;;5086375;28;20028;-78
2021/06/15 11:21:51;;;;;;;4.25;2.25;;;27.30;55.30;;;;;;5083752;28;20040;-77
2021/06/15 11:24:23;;;;;;;2.85;2.00;;;27.50;59.30;;;;;;5085806;28;20024;-77
2021/06/15 11:26:51;;;;;;;2.08;1.88;;;27.60;57.80;;;;;;5092621;28;20028;-77
2021/06/15 11:29:31;;;;;;;2.10;1.88;;;27.70;59.00;;;;;;5085387;28;20032;-76
2021/06/15 11:32:21;;;;;;;2.30;1.67;;;27.60;56.80;;;;;;5088820;28;20073;-75
2021/06/15 11:34:52;;;;;;;3.97;1.85;;;27.40;54.50;;;;;;5083571;28;20093;-76
2021/06/15 11:37:50;;;;;;;2.25;1.70;;;27.40;54.40;;;;;;5085155;28;20389;-79
2021/06/15 11:40:38;;;;;;;4.28;1.98;;;27.40;54.30;;;;;;5082405;28;20570;-77
2021/06/15 11:43:11;;;;;;;3.25;1.58;;;27.40;56.80;;;;;;5089770;28;20032;-77
2021/06/15 11:45:38;;;;;;;1.98;1.70;;;27.60;54.50;;;;;;5092883;28;20024;-77
2021/06/15 11:48:14;;;;;;;3.00;2.05;;;27.50;55.90;;;;;;5096764;28;20249;-78
2021/06/15 11:50:54;;;;;;;6.10;2.30;;;27.40;54.70;;;;;;5096876;28;20039;-76
2021/06/15 11:53:21;;;;;;;2.38;2.17;;;27.30;54.90;;;;;;5087564;28;20089;-77
2021/06/15 11:55:56;;;;;;;5.45;2.00;;;27.20;55.80;;;;;;5092840;28;20024;-77
2021/06/15 11:58:27;;;;;;;1.95;1.77;;;26.90;53.80;;;;;;5091303;28;20028;-77
2021/06/15 12:01:13;;;;;;;4.82;2.30;;;26.80;55.20;;;;;;5088471;28;20069;-77
2021/06/15 12:03:41;;;;;;;3.33;2.33;;;26.90;61.40;;;;;;5088292;28;20032;-77
2021/06/15 12:06:10;;;;;;;2.72;1.90;;;27.00;56.10;;;;;;5080745;28;20036;-77
2021/06/15 12:08:41;;;;;;;1.88;1.70;;;26.90;54.20;;;;;;5048349;28;20059;-77
2021/06/15 12:11:10;;;;;;;3.15;2.30;;;27.00;55.10;;;;;;5082183;28;20055;-77
2021/06/15 12:13:38;;;;;;;2.28;2.05;;;27.50;57.90;;;;;;5070137;28;20118;-78
2021/06/15 12:16:13;;;;;;;4.68;2.05;;;28.10;55.80;;;;;;5081185;28;20081;-77
2021/06/15 12:18:50;;;;;;;3.63;1.98;;;28.50;55.50;;;;;;5088844;28;20196;-77
2021/06/15 12:21:26;;;;;;;1.70;1.60;;;28.80;54.40;;;;;;5084033;28;20039;-76
2021/06/15 12:23:59;;;;;;;3.75;1.92;;;28.90;51.30;;;;;;5086723;28;20360;-76
2021/06/15 12:26:43;;;;;;;2.90;1.98;;;28.80;49.20;;;;;;5085565;28;20048;-77
2021/06/15 12:29:14;;;;;;;3.22;1.90;;;28.60;51.80;;;;;;5064559;28;20029;-76
2021/06/15 12:31:48;;;;;;;2.55;1.80;;;28.50;55.10;;;;;;5083362;28;20036;-77
2021/06/15 12:34:17;;;;;;;3.50;2.03;;;28.20;52.00;;;;;;5090235;28;20711;-77
2021/06/15 12:36:46;;;;;;;2.72;2.05;;;28.10;51.20;;;;;;5077513;28;20032;-78
2021/06/15 12:39:25;;;;;;;3.38;2.22;;;28.40;54.10;;;;;;5083126;28;20028;-76
2021/06/15 12:41:58;;;;;;;2.30;1.63;;;28.50;52.90;;;;;;5082649;28;20032;-76
2021/06/15 12:44:44;;;;;;;2.90;2.03;;;28.80;50.20;;;;;;5080819;28;20028;-76
2021/06/15 12:47:13;;;;;;;6.30;1.83;;;29.10;54.20;;;;;;5056672;28;20052;-77
2021/06/15 12:49:52;;;;;;;3.70;1.98;;;29.40;49.80;;;;;;5050342;28;20090;-77
2021/06/15 12:52:18;;;;;;;1.75;1.50;;;29.40;47.70;;;;;;5089061;28;20432;-76
2021/06/15 12:54:45;;;;;;;3.58;1.70;;;29.50;50.90;;;;;;5090111;28;20028;-76
2021/06/15 12:57:18;;;;;;;1.70;1.60;;;29.80;51.60;;;;;;5088257;28;20028;-77
2021/06/15 12:59:57;;;;;;;2.10;1.60;;;30.00;48.80;;;;;;5088307;28;20077;-77
2021/06/15 13:02:25;;;;;;;2.25;1.33;;;30.50;50.10;;;;;;5090053;28;20020;-77
2021/06/15 13:04:54;;;;;;;1.40;1.30;;;31.10;50.10;;;;;;5082612;28;20020;-76
2021/06/15 13:07:26;;;;;;;3.13;1.67;;;31.70;48.40;;;;;;5089085;28;20054;-77
2021/06/15 13:09:53;;;;;;;2.13;1.67;;;31.70;50.50;;;;;;5090345;28;20058;-79
2021/06/15 13:12:28;;;;;;;3.42;1.52;;;31.50;46.80;;;;;;5087487;28;20051;-77